PWSweather.com
Personal Weather Stations
Station Observations
RIORANCHO
Corrales Heights, Rio Rancho, NM 87124

Corrales HeightsRio Rancho, NM 87124

Lat: 35.241928, Lon: -106.647095

Elevation: 5297

Station Type: Davis Vantage Pro 2 Plus

http://www.weatherriorancho.com

Latest ConditionsUpdated 7:00:01 PM MST Sunday, Feb 18, 2018
Currently Today's Max Today's Min Today's Average
Temperature 56.8°F13.8°C 63.7°F17.6°C 34.1°F1.2°C 48.1°F8.9°C
Dew Point 28.7°F-1.8°C 40.3°F4.6°C 27.6°F-2.4°C 34.1°F1.2°C
Winds 2.3 mph SW3.7 kmh SW 15.0 mph SW24.1 kmh SW - 2.5 mph 4.0 kmh
Wind Gusts 5.8 mph9.3 kmh 23.0 mph37.0 kmh - -
Humidity 34% 86% 29% 62%
Pressure 29.81 in1009.5 mb 30.08 in1018.6 mb 29.77 in1008.1 mb -
Hour Temp Dew Point Humidity Winds Wind Gusts Pressure Precip Precip Rate Daily Precip Total
07:00 PM 56.8°F13.8°C 28.7°F-1.8°C 34% 2.3 mph SW3.7 kmh SW 5.8 mph9.3 kmh 29.81 in1009.5 mb - 0.00 in0.0 mm 0.00 in0.0 mm
06:50 PM 57.3°F14.1°C 28.4°F-2.0°C 33% 6.9 mph WSW11.1 kmh WSW 11.5 mph18.5 kmh 29.81 in1009.5 mb - 0.00 in0.0 mm 0.00 in0.0 mm
06:40 PM 57.7°F14.3°C 28.7°F-1.8°C 33% 10.4 mph WSW16.7 kmh WSW 23.0 mph37.0 kmh 29.80 in1009.1 mb - 0.00 in0.0 mm 0.00 in0.0 mm
06:30 PM 58.1°F14.5°C 28.3°F-2.1°C 32% 12.7 mph WSW20.4 kmh WSW 18.4 mph29.6 kmh 29.80 in1009.1 mb - 0.00 in0.0 mm 0.00 in0.0 mm
06:20 PM 58.6°F14.8°C 28.0°F-2.2°C 31% 9.2 mph SW14.8 kmh SW 16.1 mph25.9 kmh 29.80 in1009.1 mb - 0.00 in0.0 mm 0.00 in0.0 mm
06:10 PM 59.2°F15.1°C 27.7°F-2.4°C 30% 9.2 mph SW14.8 kmh SW 12.7 mph20.4 kmh 29.80 in1009.1 mb - 0.00 in0.0 mm 0.00 in0.0 mm
06:00 PM 60.0°F15.6°C 27.6°F-2.4°C 29% 8.1 mph SW13.0 kmh SW 17.3 mph27.8 kmh 29.79 in1008.8 mb - 0.00 in0.0 mm 0.00 in0.0 mm
05:50 PM 60.7°F15.9°C 28.2°F-2.1°C 29% 15.0 mph SW24.1 kmh SW 19.6 mph31.5 kmh 29.79 in1008.8 mb - 0.00 in0.0 mm 0.00 in0.0 mm
05:40 PM 61.4°F16.3°C 28.8°F-1.8°C 29% 11.5 mph SW18.5 kmh SW 17.3 mph27.8 kmh 29.79 in1008.8 mb - 0.00 in0.0 mm 0.00 in0.0 mm
05:30 PM 62.0°F16.7°C 29.4°F-1.4°C 29% 9.2 mph SW14.8 kmh SW 21.9 mph35.2 kmh 29.79 in1008.8 mb - 0.00 in0.0 mm 0.00 in0.0 mm
05:20 PM 62.8°F17.1°C 30.0°F-1.1°C 29% 13.8 mph SW22.2 kmh SW 21.9 mph35.2 kmh 29.78 in1008.5 mb - 0.00 in0.0 mm 0.00 in0.0 mm
05:10 PM 63.4°F17.4°C 30.6°F-0.8°C 29% 9.2 mph SW14.8 kmh SW 16.1 mph25.9 kmh 29.78 in1008.5 mb - 0.00 in0.0 mm 0.00 in0.0 mm
05:00 PM 63.1°F17.3°C 32.0°F0.0°C 31% 3.5 mph SW5.6 kmh SW 11.5 mph18.5 kmh 29.77 in1008.1 mb - 0.00 in0.0 mm 0.00 in0.0 mm
04:50 PM 61.8°F16.6°C 36.6°F2.6°C 39% 4.6 mph SW7.4 kmh SW 12.7 mph20.4 kmh 29.78 in1008.5 mb - 0.00 in0.0 mm 0.00 in0.0 mm
04:40 PM 61.5°F16.4°C 38.8°F3.8°C 43% 1.2 mph SW1.9 kmh SW 3.5 mph5.6 kmh 29.78 in1008.5 mb - 0.00 in0.0 mm 0.00 in0.0 mm
04:30 PM 61.5°F16.4°C 39.4°F4.1°C 44% 2.3 mph SSE3.7 kmh SSE 5.8 mph9.3 kmh 29.78 in1008.5 mb - 0.00 in0.0 mm 0.00 in0.0 mm
04:20 PM 61.5°F16.4°C 40.0°F4.4°C 45% Calm Calm 2.3 mph3.7 kmh 29.78 in1008.5 mb - 0.00 in0.0 mm 0.00 in0.0 mm
04:10 PM 61.9°F16.6°C 39.2°F4.0°C 43% 1.2 mph SE1.9 kmh SE 4.6 mph7.4 kmh 29.78 in1008.5 mb - 0.00 in0.0 mm 0.00 in0.0 mm
04:00 PM 61.5°F16.4°C 39.4°F4.1°C 44% 4.6 mph SSE7.4 kmh SSE 9.2 mph14.8 kmh 29.79 in1008.8 mb - 0.00 in0.0 mm 0.00 in0.0 mm
03:50 PM 61.8°F16.6°C 39.1°F3.9°C 43% 2.3 mph SE3.7 kmh SE 9.2 mph14.8 kmh 29.79 in1008.8 mb - 0.00 in0.0 mm 0.00 in0.0 mm
03:40 PM 61.7°F16.5°C 40.1°F4.5°C 45% 4.6 mph S7.4 kmh S 9.2 mph14.8 kmh 29.79 in1008.8 mb - 0.00 in0.0 mm 0.00 in0.0 mm
03:30 PM 62.3°F16.8°C 39.5°F4.2°C 43% 4.6 mph SE7.4 kmh SE 17.3 mph27.8 kmh 29.79 in1008.8 mb - 0.00 in0.0 mm 0.00 in0.0 mm
03:20 PM 62.1°F16.7°C 40.0°F4.4°C 44% 3.5 mph SSE5.6 kmh SSE 4.6 mph7.4 kmh 29.80 in1009.1 mb - 0.00 in0.0 mm 0.00 in0.0 mm
03:10 PM 62.2°F16.8°C 39.4°F4.1°C 43% 5.8 mph S9.3 kmh S 12.7 mph20.4 kmh 29.80 in1009.1 mb - 0.00 in0.0 mm 0.00 in0.0 mm
03:00 PM 61.7°F16.5°C 39.0°F3.9°C 43% 3.5 mph SE5.6 kmh SE 12.7 mph20.4 kmh 29.80 in1009.1 mb - 0.00 in0.0 mm 0.00 in0.0 mm
02:50 PM 61.5°F16.4°C 38.7°F3.7°C 43% 3.5 mph SSE5.6 kmh SSE 8.1 mph13.0 kmh 29.80 in1009.1 mb - 0.00 in0.0 mm 0.00 in0.0 mm
02:40 PM 61.5°F16.4°C 39.4°F4.1°C 44% 4.6 mph SE7.4 kmh SE 9.2 mph14.8 kmh 29.81 in1009.5 mb - 0.00 in0.0 mm 0.00 in0.0 mm
02:30 PM 61.8°F16.6°C 37.2°F2.9°C 40% 5.8 mph S9.3 kmh S 10.4 mph16.7 kmh 29.82 in1009.8 mb - 0.00 in0.0 mm 0.00 in0.0 mm
02:20 PM 63.7°F17.6°C 38.9°F3.8°C 40% 6.9 mph S11.1 kmh S 12.7 mph20.4 kmh 29.81 in1009.5 mb - 0.00 in0.0 mm 0.00 in0.0 mm
02:10 PM 62.8°F17.1°C 40.0°F4.4°C 43% 4.6 mph S7.4 kmh S 9.2 mph14.8 kmh 29.82 in1009.8 mb - 0.00 in0.0 mm 0.00 in0.0 mm
02:00 PM 62.4°F16.9°C 40.2°F4.6°C 44% 4.6 mph S7.4 kmh S 10.4 mph16.7 kmh 29.83 in1010.2 mb - 0.00 in0.0 mm 0.00 in0.0 mm
01:50 PM 62.8°F17.1°C 39.9°F4.4°C 43% 5.8 mph S9.3 kmh S 11.5 mph18.5 kmh 29.83 in1010.2 mb - 0.00 in0.0 mm 0.00 in0.0 mm
01:40 PM 62.2°F16.8°C 40.0°F4.4°C 44% 1.2 mph S1.9 kmh S 4.6 mph7.4 kmh 29.84 in1010.5 mb - 0.00 in0.0 mm 0.00 in0.0 mm
01:30 PM 61.5°F16.4°C 39.9°F4.4°C 45% 4.6 mph SE7.4 kmh SE 8.1 mph13.0 kmh 29.85 in1010.8 mb - 0.00 in0.0 mm 0.00 in0.0 mm
01:20 PM 61.1°F16.2°C 39.6°F4.2°C 45% 6.9 mph SE11.1 kmh SE 8.1 mph13.0 kmh 29.86 in1011.2 mb - 0.00 in0.0 mm 0.00 in0.0 mm
01:10 PM 60.7°F15.9°C 38.6°F3.7°C 44% 5.8 mph SSE9.3 kmh SSE 13.8 mph22.2 kmh 29.86 in1011.2 mb - 0.00 in0.0 mm 0.00 in0.0 mm
01:00 PM 60.5°F15.8°C 38.5°F3.6°C 44% 8.1 mph SSE13.0 kmh SSE 13.8 mph22.2 kmh 29.87 in1011.5 mb - 0.00 in0.0 mm 0.00 in0.0 mm
12:50 PM 59.7°F15.4°C 38.3°F3.5°C 45% 6.9 mph SE11.1 kmh SE 11.5 mph18.5 kmh 29.88 in1011.9 mb - 0.00 in0.0 mm 0.00 in0.0 mm
12:40 PM 58.7°F14.8°C 38.0°F3.3°C 46% 4.6 mph SSE7.4 kmh SSE 11.5 mph18.5 kmh 29.90 in1012.5 mb - 0.00 in0.0 mm 0.00 in0.0 mm
12:30 PM 58.1°F14.5°C 37.4°F3.0°C 46% 2.3 mph SE3.7 kmh SE 6.9 mph11.1 kmh 29.90 in1012.5 mb - 0.00 in0.0 mm 0.00 in0.0 mm
12:20 PM 58.3°F14.6°C 36.5°F2.5°C 44% 4.6 mph SE7.4 kmh SE 12.7 mph20.4 kmh 29.91 in1012.9 mb - 0.00 in0.0 mm 0.00 in0.0 mm
12:10 PM 57.2°F14.0°C 36.6°F2.6°C 46% 3.5 mph SE5.6 kmh SE 6.9 mph11.1 kmh 29.91 in1012.9 mb - 0.00 in0.0 mm 0.00 in0.0 mm
12:00 PM 57.3°F14.1°C 36.7°F2.6°C 46% 6.9 mph SSE11.1 kmh SSE 12.7 mph20.4 kmh 29.92 in1013.2 mb - 0.00 in0.0 mm 0.00 in0.0 mm
11:50 AM 56.9°F13.8°C 36.4°F2.4°C 46% 2.3 mph SSE3.7 kmh SSE 5.8 mph9.3 kmh 29.93 in1013.5 mb - 0.00 in0.0 mm 0.00 in0.0 mm
11:40 AM 55.8°F13.2°C 37.4°F3.0°C 50% 2.3 mph SSE3.7 kmh SSE 3.5 mph5.6 kmh 29.93 in1013.5 mb - 0.00 in0.0 mm 0.00 in0.0 mm
11:30 AM 55.0°F12.8°C 37.2°F2.9°C 51% 3.5 mph ESE5.6 kmh ESE 3.5 mph5.6 kmh 29.94 in1013.9 mb - 0.00 in0.0 mm 0.00 in0.0 mm
11:20 AM 55.0°F12.8°C 36.7°F2.6°C 50% 1.2 mph SSE1.9 kmh SSE 8.1 mph13.0 kmh 29.95 in1014.2 mb - 0.00 in0.0 mm 0.00 in0.0 mm
11:10 AM 53.7°F12.1°C 36.0°F2.2°C 51% 2.3 mph S3.7 kmh S 5.8 mph9.3 kmh 29.95 in1014.2 mb - 0.00 in0.0 mm 0.00 in0.0 mm
11:00 AM 53.3°F11.8°C 36.6°F2.6°C 53% 2.3 mph S3.7 kmh S 5.8 mph9.3 kmh 29.96 in1014.6 mb - 0.00 in0.0 mm 0.00 in0.0 mm
10:50 AM 52.4°F11.3°C 38.9°F3.8°C 60% Calm Calm -- 29.96 in1014.6 mb - 0.00 in0.0 mm 0.00 in0.0 mm
10:40 AM 51.4°F10.8°C 39.2°F4.0°C 63% 1.2 mph SSE1.9 kmh SSE 3.5 mph5.6 kmh 29.97 in1014.9 mb - 0.00 in0.0 mm 0.00 in0.0 mm
10:30 AM 50.5°F10.3°C 38.8°F3.8°C 64% 2.3 mph SSE3.7 kmh SSE 3.5 mph5.6 kmh 29.98 in1015.2 mb - 0.00 in0.0 mm 0.00 in0.0 mm
10:20 AM 49.9°F9.9°C 39.7°F4.3°C 68% 1.2 mph S1.9 kmh S 4.6 mph7.4 kmh 29.98 in1015.2 mb - 0.00 in0.0 mm 0.00 in0.0 mm
10:10 AM 48.7°F9.3°C 39.4°F4.1°C 70% 2.3 mph SSE3.7 kmh SSE 6.9 mph11.1 kmh 29.98 in1015.2 mb - 0.00 in0.0 mm 0.00 in0.0 mm
10:00 AM 48.0°F8.9°C 39.8°F4.3°C 73% 1.2 mph SSE1.9 kmh SSE 3.5 mph5.6 kmh 29.99 in1015.6 mb - 0.00 in0.0 mm 0.00 in0.0 mm
09:50 AM 47.4°F8.6°C 40.2°F4.6°C 76% 3.5 mph SSE5.6 kmh SSE 4.6 mph7.4 kmh 29.99 in1015.6 mb - 0.00 in0.0 mm 0.00 in0.0 mm
09:40 AM 46.8°F8.2°C 40.3°F4.6°C 78% 1.2 mph SE1.9 kmh SE 3.5 mph5.6 kmh 29.99 in1015.6 mb - 0.00 in0.0 mm 0.00 in0.0 mm
09:30 AM 45.8°F7.7°C 39.9°F4.4°C 80% 5.8 mph S9.3 kmh S 6.9 mph11.1 kmh 30.00 in1015.9 mb - 0.00 in0.0 mm 0.00 in0.0 mm
09:20 AM 45.5°F7.5°C 40.0°F4.4°C 81% 3.5 mph SSE5.6 kmh SSE 8.1 mph13.0 kmh 30.00 in1015.9 mb - 0.00 in0.0 mm 0.00 in0.0 mm
09:10 AM 44.0°F6.7°C 38.9°F3.8°C 82% 1.2 mph SSE1.9 kmh SSE 4.6 mph7.4 kmh 30.00 in1015.9 mb - 0.00 in0.0 mm 0.00 in0.0 mm
09:00 AM 42.8°F6.0°C 38.3°F3.5°C 84% 1.2 mph S1.9 kmh S 4.6 mph7.4 kmh 30.00 in1015.9 mb - 0.00 in0.0 mm 0.00 in0.0 mm
08:50 AM 42.5°F5.8°C 38.0°F3.3°C 84% 1.2 mph S1.9 kmh S 4.6 mph7.4 kmh 30.01 in1016.3 mb - 0.00 in0.0 mm 0.00 in0.0 mm
08:40 AM 42.3°F5.7°C 37.8°F3.2°C 84% Calm Calm 3.5 mph5.6 kmh 30.01 in1016.3 mb - 0.00 in0.0 mm 0.00 in0.0 mm
08:30 AM 41.9°F5.5°C 37.7°F3.2°C 85% Calm Calm 1.2 mph1.9 kmh 30.01 in1016.3 mb - 0.00 in0.0 mm 0.00 in0.0 mm
08:20 AM 41.8°F5.4°C 37.3°F2.9°C 84% Calm Calm 1.2 mph1.9 kmh 30.01 in1016.3 mb - 0.00 in0.0 mm 0.00 in0.0 mm
08:10 AM 41.8°F5.4°C 37.6°F3.1°C 85% Calm Calm -- 30.01 in1016.3 mb - 0.00 in0.0 mm 0.00 in0.0 mm
08:00 AM 41.2°F5.1°C 37.0°F2.8°C 85% Calm Calm -- 30.01 in1016.3 mb - 0.00 in0.0 mm 0.00 in0.0 mm
07:50 AM 41.0°F5.0°C 36.8°F2.7°C 85% 1.2 mph S1.9 kmh S 3.5 mph5.6 kmh 30.01 in1016.3 mb - 0.00 in0.0 mm 0.00 in0.0 mm
07:40 AM 40.4°F4.7°C 36.6°F2.6°C 86% 1.2 mph S1.9 kmh S 3.5 mph5.6 kmh 30.00 in1015.9 mb - 0.00 in0.0 mm 0.00 in0.0 mm
07:30 AM 38.6°F3.7°C 34.4°F1.3°C 85% Calm Calm -- 30.01 in1016.3 mb - 0.00 in0.0 mm 0.00 in0.0 mm
07:20 AM 37.7°F3.2°C 33.8°F1.0°C 86% Calm Calm 2.3 mph3.7 kmh 30.00 in1015.9 mb - 0.00 in0.0 mm 0.00 in0.0 mm
07:10 AM 36.6°F2.6°C 32.8°F0.4°C 86% Calm Calm -- 30.00 in1015.9 mb - 0.00 in0.0 mm 0.00 in0.0 mm
07:00 AM 35.8°F2.1°C 31.7°F-0.2°C 85% Calm Calm -- 30.00 in1015.9 mb - 0.00 in0.0 mm 0.00 in0.0 mm
06:50 AM 35.9°F2.2°C 32.1°F0.1°C 86% Calm Calm -- 30.00 in1015.9 mb - 0.00 in0.0 mm 0.00 in0.0 mm
06:40 AM 34.8°F1.6°C 31.1°F-0.5°C 86% Calm Calm -- 30.00 in1015.9 mb - 0.00 in0.0 mm 0.00 in0.0 mm
06:30 AM 34.2°F1.2°C 29.9°F-1.2°C 84% Calm Calm -- 30.01 in1016.3 mb - 0.00 in0.0 mm 0.00 in0.0 mm
06:20 AM 34.1°F1.2°C 29.5°F-1.4°C 83% Calm Calm -- 30.01 in1016.3 mb - 0.00 in0.0 mm 0.00 in0.0 mm
06:10 AM 34.1°F1.2°C 29.5°F-1.4°C 83% Calm Calm -- 30.01 in1016.3 mb - 0.00 in0.0 mm 0.00 in0.0 mm
06:00 AM 34.3°F1.3°C 29.4°F-1.4°C 82% Calm Calm -- 30.01 in1016.3 mb - 0.00 in0.0 mm 0.00 in0.0 mm
05:50 AM 34.5°F1.4°C 29.6°F-1.3°C 82% Calm Calm -- 30.01 in1016.3 mb - 0.00 in0.0 mm 0.00 in0.0 mm
05:40 AM 34.7°F1.5°C 29.8°F-1.2°C 82% Calm Calm -- 30.01 in1016.3 mb - 0.00 in0.0 mm 0.00 in0.0 mm
05:30 AM 34.9°F1.6°C 30.0°F-1.1°C 82% Calm Calm -- 30.01 in1016.3 mb - 0.00 in0.0 mm 0.00 in0.0 mm
05:20 AM 35.0°F1.7°C 30.1°F-1.1°C 82% Calm Calm -- 30.01 in1016.3 mb - 0.00 in0.0 mm 0.00 in0.0 mm
05:10 AM 35.2°F1.8°C 30.0°F-1.1°C 81% Calm Calm -- 30.01 in1016.3 mb - 0.00 in0.0 mm 0.00 in0.0 mm
05:00 AM 35.3°F1.8°C 30.1°F-1.1°C 81% Calm Calm -- 30.01 in1016.3 mb - 0.00 in0.0 mm 0.00 in0.0 mm
04:50 AM 35.5°F1.9°C 30.2°F-1.0°C 81% Calm Calm -- 30.01 in1016.3 mb - 0.00 in0.0 mm 0.00 in0.0 mm
04:40 AM 35.7°F2.1°C 30.1°F-1.1°C 80% Calm Calm -- 30.02 in1016.6 mb - 0.00 in0.0 mm 0.00 in0.0 mm
04:30 AM 35.9°F2.2°C 30.0°F-1.1°C 79% Calm Calm 1.2 mph1.9 kmh 30.02 in1016.6 mb - 0.00 in0.0 mm 0.00 in0.0 mm
04:20 AM 36.1°F2.3°C 30.2°F-1.0°C 79% Calm Calm 1.2 mph1.9 kmh 30.02 in1016.6 mb - 0.00 in0.0 mm 0.00 in0.0 mm
04:10 AM 36.3°F2.4°C 30.1°F-1.1°C 78% Calm Calm -- 30.02 in1016.6 mb - 0.00 in0.0 mm 0.00 in0.0 mm
04:00 AM 36.5°F2.5°C 30.0°F-1.1°C 77% Calm Calm 1.2 mph1.9 kmh 30.02 in1016.6 mb - 0.00 in0.0 mm 0.00 in0.0 mm
03:50 AM 36.6°F2.6°C 29.7°F-1.3°C 76% Calm Calm -- 30.02 in1016.6 mb - 0.00 in0.0 mm 0.00 in0.0 mm
03:40 AM 36.8°F2.7°C 29.9°F-1.2°C 76% Calm Calm -- 30.02 in1016.6 mb - 0.00 in0.0 mm 0.00 in0.0 mm
03:30 AM 36.9°F2.7°C 29.7°F-1.3°C 75% Calm Calm -- 30.02 in1016.6 mb - 0.00 in0.0 mm 0.00 in0.0 mm
03:20 AM 37.0°F2.8°C 29.8°F-1.2°C 75% Calm Calm -- 30.03 in1016.9 mb - 0.00 in0.0 mm 0.00 in0.0 mm
03:10 AM 37.3°F2.9°C 29.8°F-1.2°C 74% Calm Calm -- 30.02 in1016.6 mb - 0.00 in0.0 mm 0.00 in0.0 mm
03:00 AM 37.6°F3.1°C 30.1°F-1.1°C 74% Calm Calm -- 30.03 in1016.9 mb - 0.00 in0.0 mm 0.00 in0.0 mm
02:50 AM 37.8°F3.2°C 30.3°F-0.9°C 74% Calm Calm -- 30.04 in1017.3 mb - 0.00 in0.0 mm 0.00 in0.0 mm
02:40 AM 38.1°F3.4°C 30.5°F-0.8°C 74% Calm Calm -- 30.04 in1017.3 mb - 0.00 in0.0 mm 0.00 in0.0 mm
02:30 AM 38.2°F3.4°C 30.6°F-0.8°C 74% Calm Calm -- 30.05 in1017.6 mb - 0.00 in0.0 mm 0.00 in0.0 mm
02:20 AM 38.1°F3.4°C 30.6°F-0.8°C 74% Calm Calm -- 30.05 in1017.6 mb - 0.00 in0.0 mm 0.00 in0.0 mm
02:10 AM 36.8°F2.7°C 30.6°F-0.8°C 78% Calm Calm 1.2 mph1.9 kmh 30.05 in1017.6 mb - 0.00 in0.0 mm 0.00 in0.0 mm
02:00 AM 36.2°F2.3°C 29.4°F-1.4°C 76% Calm Calm -- 30.06 in1017.9 mb - 0.00 in0.0 mm 0.00 in0.0 mm
01:50 AM 36.4°F2.4°C 29.6°F-1.3°C 76% Calm Calm -- 30.07 in1018.3 mb - 0.00 in0.0 mm 0.00 in0.0 mm
01:40 AM 36.6°F2.6°C 29.4°F-1.4°C 75% Calm Calm -- 30.07 in1018.3 mb - 0.00 in0.0 mm 0.00 in0.0 mm
01:30 AM 36.8°F2.7°C 29.6°F-1.3°C 75% Calm Calm -- 30.07 in1018.3 mb - 0.00 in0.0 mm 0.00 in0.0 mm
01:20 AM 37.0°F2.8°C 29.5°F-1.4°C 74% Calm Calm -- 30.07 in1018.3 mb - 0.00 in0.0 mm 0.00 in0.0 mm
01:10 AM 37.2°F2.9°C 29.7°F-1.3°C 74% Calm Calm -- 30.07 in1018.3 mb - 0.00 in0.0 mm 0.00 in0.0 mm
01:00 AM 37.5°F3.1°C 29.3°F-1.5°C 72% Calm Calm -- 30.07 in1018.3 mb - 0.00 in0.0 mm 0.00 in0.0 mm
12:50 AM 37.8°F3.2°C 29.5°F-1.4°C 72% Calm Calm -- 30.07 in1018.3 mb - 0.00 in0.0 mm 0.00 in0.0 mm
12:40 AM 38.0°F3.3°C 29.4°F-1.4°C 71% Calm Calm 1.2 mph1.9 kmh 30.07 in1018.3 mb - 0.00 in0.0 mm 0.00 in0.0 mm
12:30 AM 38.3°F3.5°C 29.4°F-1.4°C 70% Calm Calm -- 30.07 in1018.3 mb - 0.00 in0.0 mm 0.00 in0.0 mm
12:20 AM 38.5°F3.6°C 29.6°F-1.3°C 70% Calm Calm 2.3 mph3.7 kmh 30.07 in1018.3 mb - 0.00 in0.0 mm 0.00 in0.0 mm
12:10 AM 38.7°F3.7°C 29.4°F-1.4°C 69% Calm Calm 1.2 mph1.9 kmh 30.07 in1018.3 mb - 0.00 in0.0 mm 0.00 in0.0 mm
12:00 AM 39.0°F3.9°C 29.3°F-1.5°C 68% Calm Calm -- 30.08 in1018.6 mb - 0.00 in0.0 mm 0.00 in0.0 mm